createdAt,value
2019-03-10T00:01:48.240Z,25.80
2019-03-10T00:04:20.340Z,20.23
2019-03-10T00:06:51.701Z,30.77
2019-03-10T00:09:23.420Z,25.53
2019-03-10T00:11:54.801Z,27.70
2019-03-10T00:14:26.189Z,26.00
2019-03-10T00:16:58.148Z,25.63
2019-03-10T00:19:29.762Z,19.07
2019-03-10T00:22:01.732Z,30.63
2019-03-10T00:24:32.935Z,28.07
2019-03-10T00:27:05.545Z,21.53
2019-03-10T00:29:38.026Z,23.87
2019-03-10T00:32:09.161Z,24.80
2019-03-10T00:34:41.115Z,27.77
2019-03-10T00:37:12.277Z,25.07
2019-03-10T00:39:46.625Z,33.07
2019-03-10T00:42:21.302Z,33.37
2019-03-10T00:45:10.233Z,26.50
2019-03-10T00:48:00.177Z,29.27
2019-03-10T00:50:56.633Z,33.07
2019-03-10T00:53:28.445Z,25.37
2019-03-10T00:56:00.590Z,32.93
2019-03-10T00:58:32.886Z,29.77
2019-03-10T01:01:04.434Z,25.90
2019-03-10T01:03:37.356Z,23.80
2019-03-10T01:06:10.530Z,27.20
2019-03-10T01:08:42.755Z,22.63
2019-03-10T01:11:14.916Z,23.80
2019-03-10T01:13:47.531Z,20.77
2019-03-10T01:16:19.904Z,28.27
2019-03-10T01:18:53.488Z,25.63
2019-03-10T01:21:27.708Z,19.07
2019-03-10T01:23:59.625Z,26.27
2019-03-10T01:26:31.881Z,27.33
2019-03-10T01:29:03.938Z,24.67
2019-03-10T01:31:43.296Z,24.73
2019-03-10T01:34:23.689Z,21.30
2019-03-10T01:36:56.830Z,20.17
2019-03-10T01:39:28.134Z,34.23
2019-03-10T01:42:01.602Z,21.23
2019-03-10T01:44:33.534Z,23.27
2019-03-10T01:47:05.300Z,23.20
2019-03-10T01:49:36.720Z,27.30
2019-03-10T01:52:08.729Z,26.10
2019-03-10T01:54:40.555Z,23.87
2019-03-10T01:57:12.649Z,19.63
2019-03-10T01:59:54.246Z,27.07
2019-03-10T02:02:28.107Z,25.73
2019-03-10T02:04:59.933Z,24.47
2019-03-10T02:07:32.240Z,23.37
2019-03-10T02:10:03.794Z,24.87
2019-03-10T02:12:34.845Z,28.83
2019-03-10T02:15:09.977Z,30.13
2019-03-10T02:17:42.639Z,20.77
2019-03-10T02:20:16.369Z,29.70
2019-03-10T02:22:49.404Z,22.10
2019-03-10T02:25:20.968Z,26.00
2019-03-10T02:27:52.344Z,28.17
2019-03-10T02:30:23.993Z,22.93
2019-03-10T02:32:55.579Z,17.03
2019-03-10T02:35:29.080Z,23.03
2019-03-10T02:38:00.437Z,29.30
2019-03-10T02:40:32.251Z,33.10
2019-03-10T02:43:03.842Z,28.60
2019-03-10T02:45:35.435Z,26.50
2019-03-10T02:48:06.455Z,22.47
2019-03-10T02:50:38.972Z,29.73
2019-03-10T02:53:10.812Z,22.53
2019-03-10T02:55:42.448Z,18.70
2019-03-10T02:58:14.162Z,29.07
2019-03-10T03:00:45.582Z,21.83
2019-03-10T03:03:17.022Z,26.20
2019-03-10T03:05:48.228Z,24.23
2019-03-10T03:08:19.746Z,23.07
2019-03-10T03:10:51.997Z,24.87
2019-03-10T03:13:24.290Z,28.20
2019-03-10T03:15:55.672Z,26.10
2019-03-10T03:18:27.684Z,19.67
2019-03-10T03:21:00.724Z,17.13
2019-03-10T03:23:33.063Z,21.40
2019-03-10T03:26:04.781Z,22.17
2019-03-10T03:28:36.796Z,20.73
2019-03-10T03:31:08.651Z,25.20
2019-03-10T03:33:39.981Z,16.53
2019-03-10T03:36:37.525Z,20.90
2019-03-10T03:39:28.356Z,27.40
2019-03-10T03:42:00.658Z,27.50
2019-03-10T03:44:32.346Z,24.83
2019-03-10T03:47:03.685Z,28.00
2019-03-10T03:49:35.135Z,21.00
2019-03-10T03:52:06.509Z,25.77
2019-03-10T03:54:38.031Z,19.67
2019-03-10T03:57:09.007Z,23.10
2019-03-10T03:59:40.579Z,33.93
2019-03-10T04:02:13.930Z,24.27
2019-03-10T04:04:46.175Z,23.57
2019-03-10T04:07:18.053Z,22.87
2019-03-10T04:09:49.741Z,34.37
2019-03-10T04:12:21.821Z,27.17
2019-03-10T04:14:53.275Z,30.87
2019-03-10T04:17:27.392Z,23.43
2019-03-10T04:19:58.576Z,24.03
2019-03-10T04:22:30.283Z,31.43
2019-03-10T04:25:02.025Z,21.70
2019-03-10T04:27:33.500Z,18.97
2019-03-10T04:30:05.546Z,21.93
2019-03-10T04:32:37.140Z,27.87
2019-03-10T04:35:08.284Z,33.80
2019-03-10T04:37:39.988Z,26.97
2019-03-10T04:40:11.914Z,34.87
2019-03-10T04:42:43.263Z,22.80
2019-03-10T04:45:14.255Z,24.83
2019-03-10T04:47:46.011Z,25.83
2019-03-10T04:50:17.998Z,26.90
2019-03-10T04:52:49.429Z,26.30
2019-03-10T04:55:22.778Z,23.87
2019-03-10T04:57:58.495Z,27.33
2019-03-10T05:00:30.233Z,22.90
2019-03-10T05:03:04.171Z,24.80
2019-03-10T05:05:35.421Z,19.87
2019-03-10T05:08:06.740Z,21.70
2019-03-10T05:10:37.820Z,24.40
2019-03-10T05:13:09.984Z,21.63
2019-03-10T05:15:41.171Z,27.83
2019-03-10T05:18:12.639Z,37.50
2019-03-10T05:20:44.246Z,26.10
2019-03-10T05:23:32.209Z,17.57
2019-03-10T05:26:03.540Z,22.40
2019-03-10T05:28:38.198Z,20.37
2019-03-10T05:31:09.629Z,27.60
2019-03-10T05:33:42.217Z,17.37
2019-03-10T05:36:13.251Z,27.93
2019-03-10T05:38:46.664Z,19.40
2019-03-10T05:41:18.653Z,19.67
2019-03-10T05:43:51.535Z,23.53
2019-03-10T05:46:26.046Z,31.93
2019-03-10T05:48:59.340Z,20.83
2019-03-10T05:51:31.457Z,17.17
2019-03-10T05:54:03.308Z,23.90
2019-03-10T05:56:34.550Z,17.53
2019-03-10T05:59:06.238Z,17.60
2019-03-10T06:01:38.967Z,20.10
2019-03-10T06:04:10.674Z,17.03
2019-03-10T06:06:42.723Z,21.17
2019-03-10T06:09:14.534Z,20.93
2019-03-10T06:11:49.100Z,17.83
2019-03-10T06:14:24.127Z,22.97
2019-03-10T06:16:56.550Z,25.53
2019-03-10T06:19:35.305Z,29.67
2019-03-10T06:22:21.907Z,17.47
2019-03-10T06:25:07.622Z,26.67
2019-03-10T06:27:40.509Z,25.57
2019-03-10T06:30:13.671Z,25.57
2019-03-10T06:32:53.007Z,19.73
2019-03-10T06:35:26.651Z,26.43
2019-03-10T06:38:03.350Z,20.20
2019-03-10T06:40:35.831Z,18.20
2019-03-10T06:46:17.748Z,18.37
2019-03-10T06:51:40.535Z,25.10
2019-03-10T06:54:14.207Z,21.20
2019-03-10T06:56:49.306Z,20.80
2019-03-10T06:59:26.789Z,18.50
2019-03-10T07:02:02.641Z,14.37
2019-03-10T07:04:36.339Z,20.07
2019-03-10T07:07:11.785Z,21.67
2019-03-10T07:09:47.247Z,19.77
2019-03-10T07:12:27.722Z,23.40
2019-03-10T07:15:06.660Z,15.50
2019-03-10T07:17:46.626Z,17.50
2019-03-10T07:20:46.921Z,14.93
2019-03-10T07:23:19.738Z,18.60
2019-03-10T07:26:10.869Z,20.53
2019-03-10T07:28:53.466Z,17.60
2019-03-10T07:31:36.487Z,25.43
2019-03-10T07:34:14.512Z,17.07
2019-03-10T07:36:58.438Z,17.23
2019-03-10T07:39:53.887Z,19.27
2019-03-10T07:42:50.625Z,18.77
2019-03-10T07:45:32.054Z,30.17
2019-03-10T07:48:22.785Z,23.23
2019-03-10T07:54:39.478Z,18.77
2019-03-10T07:57:24.188Z,26.30
2019-03-10T08:00:09.287Z,15.07
2019-03-10T08:02:56.316Z,21.77
2019-03-10T08:05:46.713Z,22.40
2019-03-10T08:08:26.724Z,20.40
2019-03-10T08:10:59.995Z,17.67
2019-03-10T08:13:33.138Z,16.30
2019-03-10T08:16:15.990Z,22.17
2019-03-10T08:18:48.601Z,16.37
2019-03-10T08:21:23.812Z,15.07
2019-03-10T08:24:05.645Z,18.80
2019-03-10T08:26:55.549Z,17.27
2019-03-10T08:29:41.260Z,17.17
2019-03-10T08:32:22.510Z,20.70
2019-03-10T08:34:59.032Z,18.47
2019-03-10T08:37:44.187Z,16.50
2019-03-10T08:40:19.224Z,19.90
2019-03-10T08:42:54.479Z,19.37
2019-03-10T08:45:35.757Z,18.43
2019-03-10T08:48:11.860Z,19.10
2019-03-10T08:50:44.658Z,16.90
2019-03-10T08:53:34.303Z,13.20
2019-03-10T08:56:13.874Z,14.63
2019-03-10T08:58:47.605Z,14.20
2019-03-10T09:01:29.825Z,18.50
2019-03-10T09:04:11.538Z,18.43
2019-03-10T09:06:47.211Z,11.70
2019-03-10T09:09:34.167Z,13.40
2019-03-10T09:12:10.724Z,17.77
2019-03-10T09:14:46.424Z,18.87
2019-03-10T09:17:28.219Z,19.67
2019-03-10T09:20:02.185Z,16.97
2019-03-10T09:22:43.540Z,18.37
2019-03-10T09:25:24.848Z,13.70
2019-03-10T09:28:00.245Z,18.80
2019-03-10T09:33:59.291Z,18.07
2019-03-10T09:36:35.086Z,15.33
2019-03-10T09:39:09.295Z,15.13
2019-03-10T09:41:45.580Z,18.97
2019-03-10T09:44:21.370Z,20.97
2019-03-10T09:47:00.346Z,16.67
2019-03-10T09:49:41.521Z,17.50
2019-03-10T09:52:16.943Z,15.17
2019-03-10T09:55:05.253Z,16.37
2019-03-10T09:57:37.900Z,16.83
2019-03-10T10:00:12.745Z,12.10
2019-03-10T10:02:51.955Z,21.57
2019-03-10T10:05:28.936Z,11.90
2019-03-10T10:08:09.078Z,20.53
2019-03-10T10:10:44.094Z,11.97
2019-03-10T10:13:19.761Z,12.90
2019-03-10T10:16:02.606Z,16.67
2019-03-10T10:18:47.626Z,19.43
2019-03-10T10:21:31.121Z,22.27
2019-03-10T10:24:11.203Z,13.87
2019-03-10T10:26:46.677Z,16.27
2019-03-10T10:29:33.765Z,9.37
2019-03-10T10:32:24.442Z,12.57
2019-03-10T10:34:56.881Z,14.53
2019-03-10T10:37:35.788Z,16.27
2019-03-10T10:40:19.570Z,8.57
2019-03-10T10:43:08.423Z,14.17
2019-03-10T10:45:44.842Z,11.00
2019-03-10T10:48:24.563Z,15.90
2019-03-10T10:54:31.913Z,10.03
2019-03-10T10:57:10.897Z,14.00
2019-03-10T10:59:43.669Z,10.33
2019-03-10T11:02:18.440Z,9.70
2019-03-10T11:04:56.402Z,8.83
2019-03-10T11:07:29.844Z,10.87
2019-03-10T11:10:16.981Z,10.97
2019-03-10T11:13:08.022Z,10.13
2019-03-10T11:15:53.695Z,11.70
2019-03-10T11:18:33.181Z,11.37
2019-03-10T11:21:10.574Z,9.47
2019-03-10T11:23:48.737Z,11.00
2019-03-10T11:26:26.853Z,11.67
2019-03-10T11:29:03.909Z,12.90
2019-03-10T11:31:45.350Z,10.77
2019-03-10T11:34:17.441Z,9.20
2019-03-10T11:37:06.943Z,7.97
2019-03-10T11:39:41.795Z,9.83
2019-03-10T11:42:18.923Z,11.90
2019-03-10T11:44:54.284Z,8.27
2019-03-10T11:47:40.903Z,8.50
2019-03-10T11:50:15.136Z,10.90
2019-03-10T11:52:46.982Z,7.73
2019-03-10T11:55:24.857Z,7.20
2019-03-10T11:58:00.919Z,14.40
2019-03-10T12:00:49.297Z,12.93
2019-03-10T12:03:24.099Z,13.37
2019-03-10T12:05:57.557Z,9.80
2019-03-10T12:08:32.343Z,9.80
2019-03-10T12:11:03.298Z,9.37
2019-03-10T12:13:34.675Z,11.83
2019-03-10T12:16:05.851Z,14.73
2019-03-10T12:18:37.125Z,9.10
2019-03-10T12:21:07.747Z,7.73
2019-03-10T12:23:39.255Z,8.33
2019-03-10T12:26:10.464Z,11.27
2019-03-10T12:28:41.744Z,19.90
2019-03-10T12:31:12.230Z,10.70
2019-03-10T12:33:43.718Z,8.20
2019-03-10T12:36:16.470Z,9.07
2019-03-10T12:38:48.294Z,9.33
2019-03-10T12:41:19.897Z,20.53
2019-03-10T12:43:50.150Z,9.63
2019-03-10T12:46:21.301Z,9.47
2019-03-10T12:48:54.513Z,8.13
2019-03-10T12:51:26.262Z,6.77
2019-03-10T12:53:57.759Z,5.87
2019-03-10T12:56:30.428Z,8.90
2019-03-10T12:59:01.970Z,9.37
2019-03-10T13:01:43.534Z,7.30
2019-03-10T13:04:19.357Z,10.57
2019-03-10T13:06:50.262Z,9.67
2019-03-10T13:09:20.955Z,6.77
2019-03-10T13:11:51.232Z,11.57
2019-03-10T13:14:21.665Z,12.80
2019-03-10T13:16:53.025Z,16.67
2019-03-10T13:19:23.872Z,27.50
2019-03-10T13:21:56.849Z,18.13
2019-03-10T13:24:31.284Z,29.23
2019-03-10T13:27:07.521Z,18.67
2019-03-10T13:29:55.058Z,9.20
2019-03-10T13:32:26.089Z,14.00
2019-03-10T13:34:57.025Z,8.13
2019-03-10T13:37:29.625Z,4.23
2019-03-10T13:40:01.866Z,9.93
2019-03-10T13:42:32.657Z,8.47
2019-03-10T13:45:08.053Z,7.93
2019-03-10T13:47:42.783Z,8.40
2019-03-10T13:50:19.190Z,7.17
2019-03-10T13:52:51.433Z,10.27
2019-03-10T13:55:23.343Z,12.17
2019-03-10T13:57:55.913Z,5.33
2019-03-10T14:00:28.196Z,6.07
2019-03-10T14:02:59.608Z,8.83
2019-03-10T14:05:31.526Z,8.63
2019-03-10T14:08:02.461Z,12.60
2019-03-10T14:10:34.125Z,9.57
2019-03-10T14:13:05.379Z,6.33
2019-03-10T14:15:36.621Z,9.17
2019-03-10T14:18:07.440Z,12.83
2019-03-10T14:20:38.243Z,15.20
2019-03-10T14:23:09.055Z,7.97
2019-03-10T14:25:40.477Z,6.00
2019-03-10T14:28:11.302Z,11.80
2019-03-10T14:30:43.889Z,9.23
2019-03-10T14:33:16.928Z,8.47
2019-03-10T14:35:49.555Z,13.23
2019-03-10T14:38:21.628Z,11.03
2019-03-10T14:40:54.063Z,9.23
2019-03-10T14:43:25.216Z,6.53
2019-03-10T14:45:57.120Z,8.57
2019-03-10T14:48:29.692Z,12.23
2019-03-10T14:51:02.292Z,8.83
2019-03-10T14:53:38.489Z,11.90
2019-03-10T14:56:11.609Z,10.50
2019-03-10T14:58:44.408Z,12.37
2019-03-10T15:04:50.499Z,13.83
2019-03-10T15:07:27.167Z,8.43
2019-03-10T15:10:04.732Z,8.50
2019-03-10T15:12:36.997Z,10.57
2019-03-10T15:15:22.431Z,11.07
2019-03-10T15:17:52.201Z,7.43
2019-03-10T15:20:24.403Z,5.60
2019-03-10T15:22:55.909Z,8.10
2019-03-10T15:25:30.335Z,7.27
2019-03-10T15:28:01.406Z,13.13
2019-03-10T15:30:32.152Z,9.67
2019-03-10T15:33:02.755Z,10.07
2019-03-10T15:35:38.479Z,10.90
2019-03-10T15:38:10.537Z,8.00
2019-03-10T15:40:43.755Z,12.50
2019-03-10T15:43:17.170Z,6.73
2019-03-10T15:45:50.528Z,18.03
2019-03-10T15:48:24.732Z,14.47
2019-03-10T15:50:55.086Z,11.30
2019-03-10T15:53:26.919Z,11.17
2019-03-10T15:55:58.520Z,10.93
2019-03-10T15:58:29.895Z,19.93
2019-03-10T16:01:03.883Z,9.40
2019-03-10T16:03:37.825Z,11.37
2019-03-10T16:06:08.868Z,7.33
2019-03-10T16:08:39.444Z,14.80
2019-03-10T16:11:09.991Z,10.73
2019-03-10T16:13:44.439Z,12.90
2019-03-10T16:16:18.977Z,8.33
2019-03-10T16:18:51.104Z,13.87
2019-03-10T16:21:22.332Z,10.87
2019-03-10T16:23:54.659Z,9.80
2019-03-10T16:26:29.022Z,18.13
2019-03-10T16:29:00.153Z,11.37
2019-03-10T16:31:35.392Z,13.40
2019-03-10T16:34:07.030Z,11.07
2019-03-10T16:36:39.272Z,10.13
2019-03-10T16:39:10.322Z,6.97
2019-03-10T16:41:40.622Z,12.67
2019-03-10T16:44:11.953Z,14.10
2019-03-10T16:46:42.493Z,11.37
2019-03-10T16:49:16.580Z,7.67
2019-03-10T16:51:46.923Z,15.73
2019-03-10T16:54:17.394Z,9.10
2019-03-10T16:56:49.056Z,11.50
2019-03-10T16:59:20.424Z,12.37
2019-03-10T17:01:50.901Z,9.67
2019-03-10T17:04:21.818Z,12.50
2019-03-10T17:06:54.038Z,8.80
2019-03-10T17:09:26.840Z,12.73
2019-03-10T17:11:59.841Z,27.17
2019-03-10T17:14:32.178Z,10.87
2019-03-10T17:17:03.061Z,7.10
2019-03-10T17:19:33.116Z,7.63
2019-03-10T17:22:03.740Z,7.13
2019-03-10T17:24:36.727Z,13.80
2019-03-10T17:27:07.953Z,12.40
2019-03-10T17:29:39.860Z,7.43
2019-03-10T17:32:10.854Z,9.43
2019-03-10T17:34:42.334Z,10.07
2019-03-10T17:37:14.954Z,6.00
2019-03-10T17:39:47.485Z,10.00
2019-03-10T17:42:19.736Z,12.63
2019-03-10T17:44:50.188Z,8.87
2019-03-10T17:47:26.515Z,10.53
2019-03-10T17:49:54.682Z,11.73
2019-03-10T17:52:25.614Z,9.10
2019-03-10T17:54:58.605Z,15.33
2019-03-10T17:57:31.594Z,14.47
2019-03-10T18:00:06.840Z,18.23
2019-03-10T18:02:38.483Z,9.83
2019-03-10T18:05:10.805Z,11.80
2019-03-10T18:07:44.208Z,7.80
2019-03-10T18:10:17.405Z,10.70
2019-03-10T18:12:48.906Z,7.10
2019-03-10T18:15:20.812Z,17.97
2019-03-10T18:17:53.788Z,14.30
2019-03-10T18:20:26.583Z,10.20
2019-03-10T18:22:59.056Z,10.23
2019-03-10T18:25:30.189Z,10.80
2019-03-10T18:28:01.252Z,8.50
2019-03-10T18:30:33.647Z,13.93
2019-03-10T18:33:05.375Z,14.80
2019-03-10T18:35:41.933Z,13.63
2019-03-10T18:38:15.121Z,9.53
2019-03-10T18:40:46.104Z,10.97
2019-03-10T18:43:17.844Z,12.63
2019-03-10T18:45:49.452Z,9.43
2019-03-10T18:48:19.917Z,7.07
2019-03-10T18:50:50.576Z,9.90
2019-03-10T18:53:21.544Z,10.40
2019-03-10T18:55:53.470Z,9.43
2019-03-10T18:58:24.569Z,12.60
2019-03-10T19:00:55.827Z,9.30
2019-03-10T19:04:05.830Z,11.63
2019-03-10T19:06:36.999Z,7.03
2019-03-10T19:09:08.295Z,17.30
2019-03-10T19:11:40.300Z,10.77
2019-03-10T19:14:12.090Z,18.10
2019-03-10T19:16:42.848Z,10.47
2019-03-10T19:19:13.763Z,9.93
2019-03-10T19:21:46.909Z,13.33
2019-03-10T19:24:17.736Z,13.87
2019-03-10T19:26:48.879Z,11.77
2019-03-10T19:29:19.604Z,7.30
2019-03-10T19:31:51.434Z,6.37
2019-03-10T19:34:21.736Z,14.37
2019-03-10T19:36:56.953Z,10.57
2019-03-10T19:39:25.050Z,12.73
2019-03-10T19:41:55.961Z,8.40
2019-03-10T19:44:27.037Z,10.37
2019-03-10T19:46:57.376Z,6.40
2019-03-10T19:49:27.480Z,8.97
2019-03-10T19:51:58.352Z,8.70
2019-03-10T19:54:29.743Z,8.30
2019-03-10T19:57:05.513Z,8.57
2019-03-10T19:59:37.236Z,6.20
2019-03-10T20:02:07.907Z,5.17
2019-03-10T20:04:39.549Z,8.70
2019-03-10T20:07:10.922Z,11.50
2019-03-10T20:09:41.209Z,12.13
2019-03-10T20:12:12.598Z,13.23
2019-03-10T20:14:45.350Z,7.30
2019-03-10T20:17:20.417Z,12.20
2019-03-10T20:19:51.630Z,8.27
2019-03-10T20:22:23.671Z,5.27
2019-03-10T20:24:54.498Z,10.73
2019-03-10T20:27:25.420Z,9.93
2019-03-10T20:29:56.389Z,20.07
2019-03-10T20:32:27.369Z,9.27
2019-03-10T20:34:58.606Z,7.93
2019-03-10T20:37:29.255Z,11.00
2019-03-10T20:39:59.991Z,9.37
2019-03-10T20:42:31.314Z,8.80
2019-03-10T20:45:04.000Z,8.40
2019-03-10T20:47:34.372Z,11.60
2019-03-10T20:50:06.762Z,15.73
2019-03-10T20:52:37.487Z,7.17
2019-03-10T20:55:09.815Z,7.27
2019-03-10T20:57:40.620Z,12.60
2019-03-10T21:00:25.980Z,12.17
2019-03-10T21:02:57.955Z,7.93
2019-03-10T21:05:29.826Z,7.07
2019-03-10T21:08:01.357Z,12.70
2019-03-10T21:10:34.216Z,7.00
2019-03-10T21:13:05.467Z,13.87
2019-03-10T21:15:37.571Z,10.03
2019-03-10T21:18:11.947Z,8.33
2019-03-10T21:20:44.761Z,7.70
2019-03-10T21:23:17.120Z,7.43
2019-03-10T21:25:49.130Z,6.40
2019-03-10T21:28:19.929Z,14.23
2019-03-10T21:30:51.751Z,9.97
2019-03-10T21:33:23.180Z,12.17
2019-03-10T21:35:56.827Z,10.80
2019-03-10T21:38:29.861Z,8.83
2019-03-10T21:41:13.230Z,8.70
2019-03-10T21:43:43.347Z,5.30
2019-03-10T21:46:15.945Z,5.27
2019-03-10T21:48:47.902Z,12.30
2019-03-10T21:51:21.023Z,6.57
2019-03-10T21:53:53.206Z,11.27
2019-03-10T21:56:24.728Z,10.87
2019-03-10T21:58:57.332Z,9.77
2019-03-10T22:01:28.336Z,7.07
2019-03-10T22:04:00.420Z,7.17
2019-03-10T22:06:31.825Z,11.00
2019-03-10T22:09:04.466Z,13.27
2019-03-10T22:11:34.557Z,11.57
2019-03-10T22:14:05.998Z,6.87
2019-03-10T22:16:37.495Z,11.70
2019-03-10T22:19:09.870Z,8.93
2019-03-10T22:21:40.414Z,6.10
2019-03-10T22:24:12.111Z,6.40
2019-03-10T22:26:44.110Z,10.33
2019-03-10T22:29:14.820Z,8.33
2019-03-10T22:31:45.825Z,8.03
2019-03-10T22:34:17.443Z,6.27
2019-03-10T22:36:47.991Z,8.37
2019-03-10T22:39:18.318Z,6.90
2019-03-10T22:41:49.101Z,8.33
2019-03-10T22:44:19.610Z,7.93
2019-03-10T22:46:50.792Z,8.20
2019-03-10T22:49:22.638Z,7.20
2019-03-10T22:51:54.719Z,8.75
2019-03-10T22:54:26.207Z,11.70
2019-03-10T22:56:57.751Z,9.30
2019-03-10T22:59:29.389Z,3.23
2019-03-10T23:02:03.158Z,3.63
2019-03-10T23:04:35.289Z,10.48
2019-03-10T23:07:06.336Z,10.03
2019-03-10T23:09:37.720Z,10.13
2019-03-10T23:12:09.063Z,6.87
2019-03-10T23:14:41.986Z,9.87
2019-03-10T23:17:13.417Z,11.25
2019-03-10T23:19:45.119Z,8.03
2019-03-10T23:22:18.564Z,8.77
2019-03-10T23:24:50.799Z,8.25
2019-03-10T23:27:22.569Z,5.83
2019-03-10T23:29:53.817Z,7.40
2019-03-10T23:32:24.891Z,3.97
2019-03-10T23:34:55.995Z,11.37
2019-03-10T23:37:28.822Z,5.73
2019-03-10T23:40:00.789Z,3.37
2019-03-10T23:42:33.390Z,6.40
2019-03-10T23:45:06.027Z,6.10
2019-03-10T23:47:39.305Z,8.67
2019-03-10T23:50:13.075Z,8.60
2019-03-10T23:52:48.092Z,7.87
2019-03-10T23:55:19.659Z,6.20
2019-03-10T23:57:50.425Z,9.77
